Lubbock, TX

2:59 AM CDT on September 22, 2014 (GMT -0500)
Orchard Park | Change Station
CLOSE
Current Station
Personal Weather Station
Location: Lubbock, TX
Elevation: 3253 ft
Nearby Weather Stations
Active Advisory: Areal Flood Watch

Elev 3253 ft 33.49 °N, 101.90 °W | Updated 1 second ago

Mostly Cloudy
Mostly Cloudy
65.2 °F
Feels Like 65.2 °F
N
0.0
Wind Variable Wind from NNE
Gusts 3.0 mph

Today
High -- | Low -- °F
--% Chance of Precip.
Yesterday
High -- | Low -- °F
Precip. -- in
7:35 AM 7:44 PM
Waning Crescent, 3% visible
Pressure 30.14 in
Visibility 9.0 miles
Clouds Mostly Cloudy 5000 ft
Mostly Cloudy 18000 ft
Dew Point 63 °F
Humidity 94%
Rainfall 0.00 in
Snow Depth Not available.
UV 0 out of 12
Pollen 7.30 out of 12
Air Quality Not available.
Flu Activity Not available.
METAR KLBB 220653Z 06008KT 9SM BKN050 BKN180 19/18 A3026 RMK AO2 SLP206 T01890178

More Conditions Fewer Conditions

Pressure 30.14 in
Visibility 9.0 miles
Clouds Mostly Cloudy 5000 ft
Mostly Cloudy 18000 ft
Dew Point 63 °F
Humidity 94%
Rainfall 0.00 in
Snow Depth Not available.
UV 0 out of 12
Pollen 7.30 out of 12
Air Quality Not available.
Flu Activity Not available.
METAR KLBB 220653Z 06008KT 9SM BKN050 BKN180 19/18 A3026 RMK AO2 SLP206 T01890178

More Conditions Fewer Conditions

10-Day Weather Forecast

Almanac

Astronomy

Sep. 22, 2014 Rise Set
Actual Time 7:35 AM CDT 7:44 PM CDT
Civil Twilight 7:10 AM CDT 8:09 PM CDT
Nautical Twilight 6:41 AM CDT 8:37 PM CDT
Astronomical Twilight 6:12 AM CDT 9:07 PM CDT
Moon 6:09 AM CDT 6:51 PM CDT
Length of Visible Light 12h 58m
Length of Day
12h 08m
Tomorrow will be 2m 3s shorter.
Waning Crescent, 3% of the Moon is Illuminated
Today
Waning Crescent
Sep 24
New
Oct 1
First Quarter
Oct 8
Full
Oct 15
Last Quarter

Today's Extremes

State Highs State Lows

Community

WunderPhotos

Upload Photos

1,755,392 photos uploaded!

Nearby

Air Quality

  Air Quality AQ Index Pollutant
Monday Good
PM10
Monday Good
OZONE
Tuesday Good
PM10
Tuesday Good
OZONE

Snow Depth

Station Depth Elevation
No new snow has been reported.

Earthquake Activity

City Distance Mag. Time & Date
No recent earthquake activity has been reported nearby.
Minimum magnitude displayed is 2.5.

Coastal Water Temperatures

Place Temperature
No Stations Reporting

Nearby Weather Stations